Airfield :
LOGIN :

Register | Disclaimer

   EN    FR    IT 

 










Legend :    VFR   Marginal VFR   IFR   Intensive IFR   Very Intensive IFR
Visi :
Ceiling :
>= 8 km
>= 3000ft
5 to 8 km
1000 to 3000 ft
1500m to 5 km
500 to 1000 ft
800 to 1500m
200 to 500 ft
< 800m
< 200 ft
Symbols :   Thunderstorms  Fog  Heavy snow  Heavy precipitations  Wind > 20 kt
SIGMETs :     Misc.  Thunderstorms  Icing  Turbulence  Mountain Waves  Volcanic Ashes






- Airport Elevation : 70 ft
- IATA code : LEI


LEAM - Almeria

CURRENT METAR :
  • 082130Z 34025G38KT CAVOK 16/M01 Q1017

EXPIRED METARs :
  • 082100Z 34027G44KT 310V010 CAVOK 16/M01 Q1017
  • 082030Z 33027G40KT 300V020 CAVOK 17/M02 Q1016
  • 082000Z 33025G37KT 300V360 CAVOK 17/M01 Q1016
  • 081930Z 33024G43KT 300V360 CAVOK 17/M01 Q1016
  • 081900Z 33024G34KT CAVOK 17/M01 Q1016

TAF TAF LEAM
Valid from the 08 at 18:00 until the 09 at 18:00 UTC


081700Z 0818/0918 33018KT CAVOK TX19/0913Z TN08/0906Z
TEMPO 0818/0824 33022G33KT
PROB40 0818/0823 33030G43KT
BECMG 0823/0901 34008KT



MET'MAP, your aeronautical weather chart ! - Copyright ORBIFLY December 2007 - Disclaimer

ORBIFLY MET'MAP TEAM :

Programming & Development : Alexandra Zaïnal
Concept & original design : Baudouin d'Aumeries
Assistance for programming : Marc-Olivier Méhu
Technical & hardware support : Manuel Goepfert

Contact : metmap@orbifly.com




SOURCES & CREDITS :

   NOAA